Startpagina
METAR-TAF:

METAR-TAF

Vliegvelden :

Militair vliegvled

Niederstetten, Duitsland

breedte: 49-24N, lengte: 009-58E, hoogte: 468 m

Actueel weer

Dit bericht is 1 uur en het 0 minuten geleden gemaakt, om 06:20 UTC
Wind 12 kt uit het westzuidwesten
Temperatuur 20°C
Vochtigheid 60%
Druk 1017 hPa
Zicht 10 km of meer
Gebroken wolken op 2600 ft

METAR: ETHN 050620Z 25012KT 9999 BKN026 20/12 Q1017 BLU

Tijdstip: 09:20 (07:20 UTC)


TAF: ontbreekt

Waarnemingen en weersverwachtingen van meer dan 4000 vliegvelden (METAR en TAF).

De beschikbare stations zijn de gele en rode punten op de kaart.

Ga met uw muis naar het station om de naam te zien.

Klik dan om waarnemingen en weersverwachtingen te zien.

kaart wijzigen: klik op de groene knoppen met een zwart kruis om in te zoomen, op de groene knop met een streepje om uit te zoomen of op de groene pijlen voor aangrenzende kaarten.


METAR-TAF: